sensor_id;sensor_type;location;lat;lon;timestamp;P1;durP1;ratioP1;P2;durP2;ratioP2
39156;SDS011;24889;42.424;25.604;2022-11-04T00:01:55;13.50;;;8.10;;
39156;SDS011;24889;42.424;25.604;2022-11-04T00:04:22;13.65;;;7.00;;
39156;SDS011;24889;42.424;25.604;2022-11-04T00:06:50;11.70;;;7.40;;
39156;SDS011;24889;42.424;25.604;2022-11-04T00:11:46;15.10;;;7.90;;
39156;SDS011;24889;42.424;25.604;2022-11-04T00:14:31;14.77;;;7.63;;
39156;SDS011;24889;42.424;25.604;2022-11-04T00:19:42;15.23;;;8.77;;
39156;SDS011;24889;42.424;25.604;2022-11-04T00:22:26;15.70;;;7.82;;
39156;SDS011;24889;42.424;25.604;2022-11-04T00:25:10;12.52;;;7.80;;
39156;SDS011;24889;42.424;25.604;2022-11-04T00:28:05;15.73;;;8.30;;
39156;SDS011;24889;42.424;25.604;2022-11-04T00:30:52;14.52;;;8.63;;
39156;SDS011;24889;42.424;25.604;2022-11-04T00:33:18;14.55;;;9.27;;
39156;SDS011;24889;42.424;25.604;2022-11-04T00:35:51;15.40;;;9.95;;
39156;SDS011;24889;42.424;25.604;2022-11-04T00:38:17;16.33;;;8.13;;
39156;SDS011;24889;42.424;25.604;2022-11-04T00:40:43;12.10;;;8.10;;
39156;SDS011;24889;42.424;25.604;2022-11-04T00:43:08;16.33;;;9.67;;
39156;SDS011;24889;42.424;25.604;2022-11-04T00:45:34;15.10;;;7.90;;
39156;SDS011;24889;42.424;25.604;2022-11-04T00:47:59;11.83;;;8.00;;
39156;SDS011;24889;42.424;25.604;2022-11-04T00:50:25;12.75;;;8.40;;
39156;SDS011;24889;42.424;25.604;2022-11-04T00:52:51;15.43;;;8.30;;
39156;SDS011;24889;42.424;25.604;2022-11-04T00:55:16;13.27;;;8.83;;
39156;SDS011;24889;42.424;25.604;2022-11-04T00:57:41;13.93;;;9.07;;
39156;SDS011;24889;42.424;25.604;2022-11-04T01:00:07;16.70;;;8.33;;
39156;SDS011;24889;42.424;25.604;2022-11-04T01:02:33;14.80;;;8.98;;
39156;SDS011;24889;42.424;25.604;2022-11-04T01:04:58;15.07;;;8.63;;
39156;SDS011;24889;42.424;25.604;2022-11-04T01:07:24;12.20;;;8.48;;
39156;SDS011;24889;42.424;25.604;2022-11-04T01:09:50;12.93;;;8.60;;
39156;SDS011;24889;42.424;25.604;2022-11-04T01:12:15;17.70;;;8.90;;
39156;SDS011;24889;42.424;25.604;2022-11-04T01:14:41;17.33;;;8.75;;
39156;SDS011;24889;42.424;25.604;2022-11-04T01:17:07;16.58;;;8.80;;
39156;SDS011;24889;42.424;25.604;2022-11-04T01:19:32;17.98;;;8.38;;
39156;SDS011;24889;42.424;25.604;2022-11-04T01:21:58;11.85;;;8.15;;
39156;SDS011;24889;42.424;25.604;2022-11-04T01:24:23;14.67;;;8.33;;
39156;SDS011;24889;42.424;25.604;2022-11-04T01:26:49;14.97;;;9.03;;
39156;SDS011;24889;42.424;25.604;2022-11-04T01:29:14;18.70;;;8.83;;
39156;SDS011;24889;42.424;25.604;2022-11-04T01:31:39;13.80;;;8.93;;
39156;SDS011;24889;42.424;25.604;2022-11-04T01:34:05;12.70;;;7.67;;
39156;SDS011;24889;42.424;25.604;2022-11-04T01:36:31;13.05;;;8.63;;
39156;SDS011;24889;42.424;25.604;2022-11-04T01:38:57;13.52;;;9.13;;
39156;SDS011;24889;42.424;25.604;2022-11-04T01:41:26;14.37;;;7.80;;
39156;SDS011;24889;42.424;25.604;2022-11-04T01:43:54;15.05;;;8.93;;
39156;SDS011;24889;42.424;25.604;2022-11-04T01:48:58;13.48;;;8.85;;
39156;SDS011;24889;42.424;25.604;2022-11-04T01:51:28;11.85;;;8.05;;
39156;SDS011;24889;42.424;25.604;2022-11-04T01:53:59;15.73;;;7.88;;
39156;SDS011;24889;42.424;25.604;2022-11-04T01:58:52;18.77;;;9.13;;
39156;SDS011;24889;42.424;25.604;2022-11-04T02:01:22;13.73;;;8.10;;
39156;SDS011;24889;42.424;25.604;2022-11-04T02:03:49;13.70;;;8.03;;
39156;SDS011;24889;42.424;25.604;2022-11-04T02:06:18;14.27;;;9.32;;
39156;SDS011;24889;42.424;25.604;2022-11-04T02:08:46;15.90;;;8.60;;
39156;SDS011;24889;42.424;25.604;2022-11-04T02:11:12;17.75;;;10.15;;
39156;SDS011;24889;42.424;25.604;2022-11-04T02:13:57;17.42;;;9.13;;
39156;SDS011;24889;42.424;25.604;2022-11-04T02:16:29;14.70;;;8.90;;
39156;SDS011;24889;42.424;25.604;2022-11-04T02:19:18;15.82;;;8.75;;
39156;SDS011;24889;42.424;25.604;2022-11-04T02:30:45;15.45;;;8.20;;
39156;SDS011;24889;42.424;25.604;2022-11-04T02:36:02;11.70;;;7.43;;
39156;SDS011;24889;42.424;25.604;2022-11-04T02:38:50;12.48;;;8.00;;
39156;SDS011;24889;42.424;25.604;2022-11-04T02:49:18;16.00;;;8.65;;
39156;SDS011;24889;42.424;25.604;2022-11-04T02:51:57;11.15;;;7.32;;
39156;SDS011;24889;42.424;25.604;2022-11-04T02:54:33;14.52;;;10.35;;
39156;SDS011;24889;42.424;25.604;2022-11-04T02:57:06;15.27;;;8.15;;
39156;SDS011;24889;42.424;25.604;2022-11-04T02:59:37;12.07;;;7.55;;
39156;SDS011;24889;42.424;25.604;2022-11-04T03:02:07;15.93;;;7.82;;
39156;SDS011;24889;42.424;25.604;2022-11-04T03:04:39;14.95;;;8.52;;
39156;SDS011;24889;42.424;25.604;2022-11-04T03:07:09;12.35;;;8.98;;
39156;SDS011;24889;42.424;25.604;2022-11-04T03:09:39;15.50;;;7.78;;
39156;SDS011;24889;42.424;25.604;2022-11-04T03:12:08;15.48;;;8.70;;
39156;SDS011;24889;42.424;25.604;2022-11-04T03:14:43;17.67;;;7.50;;
39156;SDS011;24889;42.424;25.604;2022-11-04T03:17:20;12.75;;;8.05;;
39156;SDS011;24889;42.424;25.604;2022-11-04T03:19:52;15.27;;;8.93;;
39156;SDS011;24889;42.424;25.604;2022-11-04T03:22:22;17.75;;;8.60;;
39156;SDS011;24889;42.424;25.604;2022-11-04T03:24:53;18.48;;;8.43;;
39156;SDS011;24889;42.424;25.604;2022-11-04T03:30:13;15.88;;;8.25;;
39156;SDS011;24889;42.424;25.604;2022-11-04T03:32:53;19.75;;;9.77;;
39156;SDS011;24889;42.424;25.604;2022-11-04T03:35:28;16.17;;;8.90;;
39156;SDS011;24889;42.424;25.604;2022-11-04T03:37:54;16.10;;;9.80;;
39156;SDS011;24889;42.424;25.604;2022-11-04T03:40:21;15.70;;;9.18;;
39156;SDS011;24889;42.424;25.604;2022-11-04T03:43:08;16.35;;;8.15;;
39156;SDS011;24889;42.424;25.604;2022-11-04T03:45:35;14.77;;;8.23;;
39156;SDS011;24889;42.424;25.604;2022-11-04T03:48:01;19.70;;;8.60;;
39156;SDS011;24889;42.424;25.604;2022-11-04T03:50:28;13.80;;;8.57;;
39156;SDS011;24889;42.424;25.604;2022-11-04T03:52:56;15.63;;;9.13;;
39156;SDS011;24889;42.424;25.604;2022-11-04T03:55:43;16.92;;;8.90;;
39156;SDS011;24889;42.424;25.604;2022-11-04T04:01:01;18.48;;;10.00;;
39156;SDS011;24889;42.424;25.604;2022-11-04T04:03:39;13.98;;;9.25;;
39156;SDS011;24889;42.424;25.604;2022-11-04T04:06:18;16.42;;;9.15;;
39156;SDS011;24889;42.424;25.604;2022-11-04T04:08:50;20.48;;;9.75;;
39156;SDS011;24889;42.424;25.604;2022-11-04T04:11:36;19.40;;;9.60;;
39156;SDS011;24889;42.424;25.604;2022-11-04T04:14:16;18.98;;;9.65;;
39156;SDS011;24889;42.424;25.604;2022-11-04T04:17:13;15.35;;;9.88;;
39156;SDS011;24889;42.424;25.604;2022-11-04T04:19:44;21.27;;;8.55;;
39156;SDS011;24889;42.424;25.604;2022-11-04T04:22:17;18.45;;;8.52;;
39156;SDS011;24889;42.424;25.604;2022-11-04T04:24:47;13.95;;;8.25;;
39156;SDS011;24889;42.424;25.604;2022-11-04T04:27:34;19.58;;;9.90;;
39156;SDS011;24889;42.424;25.604;2022-11-04T04:30:05;20.05;;;9.52;;
39156;SDS011;24889;42.424;25.604;2022-11-04T04:32:45;19.63;;;10.68;;
39156;SDS011;24889;42.424;25.604;2022-11-04T04:35:13;21.67;;;11.15;;
39156;SDS011;24889;42.424;25.604;2022-11-04T04:37:59;25.15;;;13.15;;
39156;SDS011;24889;42.424;25.604;2022-11-04T04:40:49;25.45;;;14.88;;
39156;SDS011;24889;42.424;25.604;2022-11-04T04:43:38;27.60;;;14.40;;
39156;SDS011;24889;42.424;25.604;2022-11-04T04:46:26;21.17;;;10.93;;
39156;SDS011;24889;42.424;25.604;2022-11-04T04:48:53;20.52;;;10.73;;
39156;SDS011;24889;42.424;25.604;2022-11-04T04:51:18;22.10;;;10.10;;
39156;SDS011;24889;42.424;25.604;2022-11-04T04:53:44;21.50;;;9.73;;
39156;SDS011;24889;42.424;25.604;2022-11-04T04:56:09;16.03;;;9.77;;
39156;SDS011;24889;42.424;25.604;2022-11-04T04:58:35;22.00;;;10.87;;
39156;SDS011;24889;42.424;25.604;2022-11-04T05:01:02;20.80;;;11.23;;
39156;SDS011;24889;42.424;25.604;2022-11-04T05:03:28;20.88;;;12.55;;
39156;SDS011;24889;42.424;25.604;2022-11-04T05:05:53;19.20;;;11.20;;
39156;SDS011;24889;42.424;25.604;2022-11-04T05:08:19;16.53;;;9.90;;
39156;SDS011;24889;42.424;25.604;2022-11-04T05:10:44;24.47;;;11.07;;
39156;SDS011;24889;42.424;25.604;2022-11-04T05:13:11;16.83;;;10.07;;
39156;SDS011;24889;42.424;25.604;2022-11-04T05:15:54;20.27;;;10.43;;
39156;SDS011;24889;42.424;25.604;2022-11-04T05:18:21;19.50;;;9.93;;
39156;SDS011;24889;42.424;25.604;2022-11-04T05:20:47;20.58;;;10.13;;
39156;SDS011;24889;42.424;25.604;2022-11-04T05:23:13;15.50;;;9.83;;
39156;SDS011;24889;42.424;25.604;2022-11-04T05:25:39;16.83;;;10.03;;
39156;SDS011;24889;42.424;25.604;2022-11-04T05:28:05;18.30;;;11.55;;
39156;SDS011;24889;42.424;25.604;2022-11-04T05:30:31;20.67;;;11.73;;
39156;SDS011;24889;42.424;25.604;2022-11-04T05:32:57;30.80;;;14.33;;
39156;SDS011;24889;42.424;25.604;2022-11-04T05:35:22;22.97;;;12.63;;
39156;SDS011;24889;42.424;25.604;2022-11-04T05:37:48;24.43;;;12.47;;
39156;SDS011;24889;42.424;25.604;2022-11-04T05:40:13;23.88;;;12.00;;
39156;SDS011;24889;42.424;25.604;2022-11-04T05:42:39;28.35;;;12.10;;
39156;SDS011;24889;42.424;25.604;2022-11-04T05:45:05;23.60;;;12.20;;
39156;SDS011;24889;42.424;25.604;2022-11-04T05:47:31;21.92;;;12.82;;
39156;SDS011;24889;42.424;25.604;2022-11-04T05:49:56;24.37;;;13.50;;
39156;SDS011;24889;42.424;25.604;2022-11-04T05:52:21;23.90;;;13.07;;
39156;SDS011;24889;42.424;25.604;2022-11-04T05:54:47;23.17;;;12.73;;
39156;SDS011;24889;42.424;25.604;2022-11-04T05:57:12;19.73;;;13.30;;
39156;SDS011;24889;42.424;25.604;2022-11-04T05:59:38;28.00;;;13.67;;
39156;SDS011;24889;42.424;25.604;2022-11-04T06:02:03;29.63;;;14.53;;
39156;SDS011;24889;42.424;25.604;2022-11-04T06:04:29;23.90;;;14.30;;
39156;SDS011;24889;42.424;25.604;2022-11-04T06:06:55;34.40;;;15.55;;
39156;SDS011;24889;42.424;25.604;2022-11-04T06:09:21;35.83;;;16.40;;
39156;SDS011;24889;42.424;25.604;2022-11-04T06:12:03;28.63;;;16.30;;
39156;SDS011;24889;42.424;25.604;2022-11-04T06:17:04;36.70;;;14.60;;
39156;SDS011;24889;42.424;25.604;2022-11-04T06:19:29;26.47;;;12.63;;
39156;SDS011;24889;42.424;25.604;2022-11-04T06:21:55;27.23;;;13.33;;
39156;SDS011;24889;42.424;25.604;2022-11-04T06:24:20;22.63;;;13.37;;
39156;SDS011;24889;42.424;25.604;2022-11-04T06:26:46;25.83;;;12.97;;
39156;SDS011;24889;42.424;25.604;2022-11-04T06:29:11;22.07;;;12.77;;
39156;SDS011;24889;42.424;25.604;2022-11-04T06:31:37;22.30;;;12.27;;
39156;SDS011;24889;42.424;25.604;2022-11-04T06:34:02;27.53;;;12.20;;
39156;SDS011;24889;42.424;25.604;2022-11-04T06:36:28;24.20;;;11.27;;
39156;SDS011;24889;42.424;25.604;2022-11-04T06:38:53;20.93;;;12.03;;
39156;SDS011;24889;42.424;25.604;2022-11-04T06:41:19;22.97;;;12.27;;
39156;SDS011;24889;42.424;25.604;2022-11-04T06:43:45;27.15;;;13.10;;
39156;SDS011;24889;42.424;25.604;2022-11-04T06:46:24;24.00;;;11.82;;
39156;SDS011;24889;42.424;25.604;2022-11-04T06:48:51;19.92;;;11.68;;
39156;SDS011;24889;42.424;25.604;2022-11-04T06:51:17;23.65;;;11.93;;
39156;SDS011;24889;42.424;25.604;2022-11-04T06:53:42;20.20;;;10.02;;
39156;SDS011;24889;42.424;25.604;2022-11-04T06:56:08;20.52;;;11.25;;
39156;SDS011;24889;42.424;25.604;2022-11-04T06:58:33;26.00;;;13.00;;
39156;SDS011;24889;42.424;25.604;2022-11-04T07:00:59;22.67;;;13.20;;
39156;SDS011;24889;42.424;25.604;2022-11-04T07:03:24;28.27;;;13.67;;
39156;SDS011;24889;42.424;25.604;2022-11-04T07:05:50;28.63;;;13.63;;
39156;SDS011;24889;42.424;25.604;2022-11-04T07:08:15;22.87;;;13.03;;
39156;SDS011;24889;42.424;25.604;2022-11-04T07:10:41;26.37;;;14.60;;
39156;SDS011;24889;42.424;25.604;2022-11-04T07:13:06;20.60;;;11.60;;
39156;SDS011;24889;42.424;25.604;2022-11-04T07:15:32;28.02;;;12.13;;
39156;SDS011;24889;42.424;25.604;2022-11-04T07:17:58;23.10;;;12.77;;
39156;SDS011;24889;42.424;25.604;2022-11-04T07:20:23;19.05;;;11.75;;
39156;SDS011;24889;42.424;25.604;2022-11-04T07:22:49;18.55;;;11.00;;
39156;SDS011;24889;42.424;25.604;2022-11-04T07:25:15;19.10;;;11.35;;
39156;SDS011;24889;42.424;25.604;2022-11-04T07:27:40;20.17;;;11.52;;
39156;SDS011;24889;42.424;25.604;2022-11-04T07:30:06;19.52;;;11.45;;
39156;SDS011;24889;42.424;25.604;2022-11-04T07:32:32;23.95;;;11.85;;
39156;SDS011;24889;42.424;25.604;2022-11-04T07:34:58;16.05;;;11.05;;
39156;SDS011;24889;42.424;25.604;2022-11-04T07:37:23;26.50;;;11.82;;
39156;SDS011;24889;42.424;25.604;2022-11-04T07:39:49;20.67;;;10.87;;
39156;SDS011;24889;42.424;25.604;2022-11-04T07:42:14;20.63;;;9.52;;
39156;SDS011;24889;42.424;25.604;2022-11-04T07:44:40;17.43;;;10.13;;
39156;SDS011;24889;42.424;25.604;2022-11-04T07:47:05;17.83;;;11.53;;
39156;SDS011;24889;42.424;25.604;2022-11-04T07:49:30;17.67;;;11.25;;
39156;SDS011;24889;42.424;25.604;2022-11-04T07:51:56;18.00;;;11.55;;
39156;SDS011;24889;42.424;25.604;2022-11-04T07:54:21;18.20;;;12.15;;
39156;SDS011;24889;42.424;25.604;2022-11-04T07:56:47;19.77;;;12.10;;
39156;SDS011;24889;42.424;25.604;2022-11-04T07:59:12;19.50;;;12.20;;
39156;SDS011;24889;42.424;25.604;2022-11-04T08:01:38;20.13;;;12.68;;
39156;SDS011;24889;42.424;25.604;2022-11-04T08:04:04;22.38;;;12.80;;
39156;SDS011;24889;42.424;25.604;2022-11-04T08:06:31;23.58;;;13.43;;
39156;SDS011;24889;42.424;25.604;2022-11-04T08:08:57;28.33;;;14.07;;
39156;SDS011;24889;42.424;25.604;2022-11-04T08:11:23;24.08;;;14.38;;
39156;SDS011;24889;42.424;25.604;2022-11-04T08:13:52;30.38;;;14.95;;
39156;SDS011;24889;42.424;25.604;2022-11-04T08:16:19;26.00;;;13.70;;
39156;SDS011;24889;42.424;25.604;2022-11-04T08:18:47;24.55;;;13.88;;
39156;SDS011;24889;42.424;25.604;2022-11-04T08:21:15;27.75;;;14.93;;
39156;SDS011;24889;42.424;25.604;2022-11-04T08:23:41;26.85;;;14.82;;
39156;SDS011;24889;42.424;25.604;2022-11-04T08:26:09;30.97;;;14.93;;
39156;SDS011;24889;42.424;25.604;2022-11-04T08:28:37;26.23;;;15.32;;
39156;SDS011;24889;42.424;25.604;2022-11-04T08:33:40;27.20;;;14.98;;
39156;SDS011;24889;42.424;25.604;2022-11-04T08:36:11;29.23;;;15.48;;
39156;SDS011;24889;42.424;25.604;2022-11-04T08:38:56;29.15;;;16.30;;
39156;SDS011;24889;42.424;25.604;2022-11-04T08:41:27;30.83;;;16.52;;
39156;SDS011;24889;42.424;25.604;2022-11-04T08:43:58;30.13;;;17.17;;
39156;SDS011;24889;42.424;25.604;2022-11-04T08:46:26;29.50;;;16.55;;
39156;SDS011;24889;42.424;25.604;2022-11-04T08:48:52;34.75;;;17.52;;
39156;SDS011;24889;42.424;25.604;2022-11-04T08:51:21;34.83;;;17.10;;
39156;SDS011;24889;42.424;25.604;2022-11-04T08:53:49;29.35;;;16.13;;
39156;SDS011;24889;42.424;25.604;2022-11-04T08:56:16;35.40;;;16.38;;
39156;SDS011;24889;42.424;25.604;2022-11-04T08:58:45;29.33;;;16.80;;
39156;SDS011;24889;42.424;25.604;2022-11-04T09:01:10;32.93;;;17.13;;
39156;SDS011;24889;42.424;25.604;2022-11-04T09:03:37;28.02;;;15.23;;
39156;SDS011;24889;42.424;25.604;2022-11-04T09:06:07;37.13;;;18.38;;
39156;SDS011;24889;42.424;25.604;2022-11-04T09:08:35;28.85;;;15.93;;
39156;SDS011;24889;42.424;25.604;2022-11-04T09:11:07;27.67;;;16.00;;
39156;SDS011;24889;42.424;25.604;2022-11-04T09:13:36;29.27;;;16.60;;
39156;SDS011;24889;42.424;25.604;2022-11-04T09:25:45;31.70;;;16.53;;
39156;SDS011;24889;42.424;25.604;2022-11-04T09:28:10;34.03;;;18.98;;
39156;SDS011;24889;42.424;25.604;2022-11-04T09:30:36;34.80;;;20.53;;
39156;SDS011;24889;42.424;25.604;2022-11-04T09:33:02;47.75;;;22.08;;
39156;SDS011;24889;42.424;25.604;2022-11-04T09:35:27;38.47;;;19.73;;
39156;SDS011;24889;42.424;25.604;2022-11-04T09:37:53;39.60;;;21.13;;
39156;SDS011;24889;42.424;25.604;2022-11-04T09:40:21;37.75;;;21.13;;
39156;SDS011;24889;42.424;25.604;2022-11-04T09:43:07;34.97;;;19.60;;
39156;SDS011;24889;42.424;25.604;2022-11-04T09:45:38;38.63;;;19.83;;
39156;SDS011;24889;42.424;25.604;2022-11-04T09:48:06;37.60;;;20.10;;
39156;SDS011;24889;42.424;25.604;2022-11-04T09:50:44;37.37;;;19.23;;
39156;SDS011;24889;42.424;25.604;2022-11-04T09:53:14;42.80;;;20.40;;
39156;SDS011;24889;42.424;25.604;2022-11-04T09:55:49;39.28;;;20.00;;
39156;SDS011;24889;42.424;25.604;2022-11-04T09:58:19;36.17;;;19.70;;
39156;SDS011;24889;42.424;25.604;2022-11-04T10:00:56;37.43;;;18.67;;
39156;SDS011;24889;42.424;25.604;2022-11-04T10:06:26;37.22;;;20.55;;
39156;SDS011;24889;42.424;25.604;2022-11-04T10:09:05;40.55;;;22.63;;
39156;SDS011;24889;42.424;25.604;2022-11-04T10:14:32;44.35;;;20.33;;
39156;SDS011;24889;42.424;25.604;2022-11-04T10:22:54;42.53;;;19.83;;
39156;SDS011;24889;42.424;25.604;2022-11-04T10:25:35;40.50;;;22.40;;
39156;SDS011;24889;42.424;25.604;2022-11-04T10:28:09;49.70;;;22.42;;
39156;SDS011;24889;42.424;25.604;2022-11-04T10:30:40;41.72;;;21.63;;
39156;SDS011;24889;42.424;25.604;2022-11-04T10:33:10;41.00;;;19.92;;
39156;SDS011;24889;42.424;25.604;2022-11-04T10:35:39;35.83;;;20.33;;
39156;SDS011;24889;42.424;25.604;2022-11-04T10:38:14;38.97;;;22.77;;
39156;SDS011;24889;42.424;25.604;2022-11-04T10:40:50;45.05;;;21.50;;
39156;SDS011;24889;42.424;25.604;2022-11-04T10:43:21;41.33;;;23.73;;
39156;SDS011;24889;42.424;25.604;2022-11-04T10:48:35;41.55;;;23.60;;
39156;SDS011;24889;42.424;25.604;2022-11-04T10:51:08;37.88;;;22.05;;
39156;SDS011;24889;42.424;25.604;2022-11-04T10:53:34;41.97;;;21.60;;
39156;SDS011;24889;42.424;25.604;2022-11-04T10:58:45;40.42;;;22.65;;
39156;SDS011;24889;42.424;25.604;2022-11-04T11:01:31;43.22;;;19.85;;
39156;SDS011;24889;42.424;25.604;2022-11-04T11:03:58;36.50;;;21.33;;
39156;SDS011;24889;42.424;25.604;2022-11-04T11:06:29;40.35;;;22.73;;
39156;SDS011;24889;42.424;25.604;2022-11-04T11:09:00;38.58;;;22.77;;
39156;SDS011;24889;42.424;25.604;2022-11-04T11:14:38;45.17;;;24.83;;
39156;SDS011;24889;42.424;25.604;2022-11-04T11:19:52;36.25;;;21.50;;
39156;SDS011;24889;42.424;25.604;2022-11-04T11:22:33;35.22;;;22.15;;
39156;SDS011;24889;42.424;25.604;2022-11-04T11:27:54;39.08;;;21.63;;
39156;SDS011;24889;42.424;25.604;2022-11-04T11:32:50;38.33;;;22.33;;
39156;SDS011;24889;42.424;25.604;2022-11-04T11:35:20;36.65;;;22.45;;
39156;SDS011;24889;42.424;25.604;2022-11-04T11:37:49;38.15;;;22.85;;
39156;SDS011;24889;42.424;25.604;2022-11-04T11:40:49;36.42;;;23.55;;
39156;SDS011;24889;42.424;25.604;2022-11-04T11:43:14;38.05;;;22.60;;
39156;SDS011;24889;42.424;25.604;2022-11-04T11:45:49;36.35;;;23.15;;
39156;SDS011;24889;42.424;25.604;2022-11-04T11:50:54;35.78;;;20.70;;
39156;SDS011;24889;42.424;25.604;2022-11-04T11:53:24;40.13;;;25.45;;
39156;SDS011;24889;42.424;25.604;2022-11-04T11:55:56;52.33;;;34.42;;
39156;SDS011;24889;42.424;25.604;2022-11-04T11:58:44;44.92;;;24.83;;
39156;SDS011;24889;42.424;25.604;2022-11-04T12:04:07;38.25;;;22.75;;
39156;SDS011;24889;42.424;25.604;2022-11-04T12:12:03;43.13;;;23.52;;
39156;SDS011;24889;42.424;25.604;2022-11-04T12:17:33;34.30;;;21.60;;
39156;SDS011;24889;42.424;25.604;2022-11-04T12:20:35;37.70;;;22.70;;
39156;SDS011;24889;42.424;25.604;2022-11-04T12:23:10;37.20;;;22.13;;
39156;SDS011;24889;42.424;25.604;2022-11-04T12:28:57;35.25;;;22.85;;
39156;SDS011;24889;42.424;25.604;2022-11-04T12:34:28;40.88;;;23.98;;
39156;SDS011;24889;42.424;25.604;2022-11-04T12:40:10;41.58;;;21.73;;
39156;SDS011;24889;42.424;25.604;2022-11-04T12:42:45;35.22;;;21.30;;
39156;SDS011;24889;42.424;25.604;2022-11-04T12:51:33;33.97;;;21.08;;
39156;SDS011;24889;42.424;25.604;2022-11-04T12:54:22;39.78;;;23.48;;
39156;SDS011;24889;42.424;25.604;2022-11-04T13:00:03;40.33;;;23.55;;
39156;SDS011;24889;42.424;25.604;2022-11-04T13:13:08;41.15;;;20.98;;
39156;SDS011;24889;42.424;25.604;2022-11-04T13:15:50;34.00;;;20.55;;
39156;SDS011;24889;42.424;25.604;2022-11-04T13:18:19;44.63;;;21.13;;
39156;SDS011;24889;42.424;25.604;2022-11-04T13:20:52;39.08;;;20.95;;
39156;SDS011;24889;42.424;25.604;2022-11-04T13:24:03;34.08;;;19.92;;
39156;SDS011;24889;42.424;25.604;2022-11-04T13:26:36;34.83;;;22.90;;
39156;SDS011;24889;42.424;25.604;2022-11-04T13:29:05;31.27;;;22.77;;
39156;SDS011;24889;42.424;25.604;2022-11-04T13:39:45;70.15;;;24.08;;
39156;SDS011;24889;42.424;25.604;2022-11-04T13:45:10;42.13;;;22.85;;
39156;SDS011;24889;42.424;25.604;2022-11-04T13:47:43;44.80;;;22.58;;
39156;SDS011;24889;42.424;25.604;2022-11-04T13:50:29;40.63;;;24.00;;
39156;SDS011;24889;42.424;25.604;2022-11-04T13:52:58;39.90;;;23.58;;
39156;SDS011;24889;42.424;25.604;2022-11-04T13:55:24;43.13;;;23.65;;
39156;SDS011;24889;42.424;25.604;2022-11-04T13:57:53;44.10;;;26.50;;
39156;SDS011;24889;42.424;25.604;2022-11-04T14:00:23;40.97;;;24.15;;
39156;SDS011;24889;42.424;25.604;2022-11-04T14:02:52;40.05;;;22.50;;
39156;SDS011;24889;42.424;25.604;2022-11-04T14:11:26;41.80;;;24.40;;
39156;SDS011;24889;42.424;25.604;2022-11-04T14:18:43;37.83;;;23.77;;
39156;SDS011;24889;42.424;25.604;2022-11-04T14:21:11;43.05;;;24.52;;
39156;SDS011;24889;42.424;25.604;2022-11-04T14:23:38;40.38;;;24.23;;
39156;SDS011;24889;42.424;25.604;2022-11-04T14:26:08;39.05;;;25.33;;
39156;SDS011;24889;42.424;25.604;2022-11-04T14:28:35;40.35;;;25.02;;
39156;SDS011;24889;42.424;25.604;2022-11-04T14:31:05;39.35;;;24.25;;
39156;SDS011;24889;42.424;25.604;2022-11-04T14:33:49;45.80;;;25.40;;
39156;SDS011;24889;42.424;25.604;2022-11-04T14:44:08;74.47;;;33.63;;
39156;SDS011;24889;42.424;25.604;2022-11-04T14:46:45;71.20;;;32.53;;
39156;SDS011;24889;42.424;25.604;2022-11-04T14:49:26;76.95;;;38.35;;
39156;SDS011;24889;42.424;25.604;2022-11-04T14:52:04;73.38;;;36.55;;
39156;SDS011;24889;42.424;25.604;2022-11-04T14:54:37;76.05;;;36.70;;
39156;SDS011;24889;42.424;25.604;2022-11-04T14:57:19;74.00;;;33.90;;
39156;SDS011;24889;42.424;25.604;2022-11-04T14:59:46;65.10;;;33.58;;
39156;SDS011;24889;42.424;25.604;2022-11-04T15:02:22;65.38;;;32.78;;
39156;SDS011;24889;42.424;25.604;2022-11-04T15:04:55;67.13;;;32.40;;
39156;SDS011;24889;42.424;25.604;2022-11-04T15:07:35;65.97;;;37.22;;
39156;SDS011;24889;42.424;25.604;2022-11-04T15:13:01;62.45;;;34.15;;
39156;SDS011;24889;42.424;25.604;2022-11-04T15:15:28;66.67;;;36.47;;
39156;SDS011;24889;42.424;25.604;2022-11-04T15:18:07;61.58;;;35.13;;
39156;SDS011;24889;42.424;25.604;2022-11-04T15:20:56;54.53;;;32.60;;
39156;SDS011;24889;42.424;25.604;2022-11-04T15:23:30;58.90;;;33.75;;
39156;SDS011;24889;42.424;25.604;2022-11-04T15:25:59;63.22;;;35.28;;
39156;SDS011;24889;42.424;25.604;2022-11-04T15:28:27;69.97;;;36.28;;
39156;SDS011;24889;42.424;25.604;2022-11-04T15:30:59;70.30;;;38.47;;
39156;SDS011;24889;42.424;25.604;2022-11-04T15:33:30;72.53;;;39.35;;
39156;SDS011;24889;42.424;25.604;2022-11-04T15:36:09;68.35;;;36.00;;
39156;SDS011;24889;42.424;25.604;2022-11-04T15:38:48;70.43;;;35.00;;
39156;SDS011;24889;42.424;25.604;2022-11-04T15:41:19;64.65;;;33.28;;
39156;SDS011;24889;42.424;25.604;2022-11-04T15:44:05;58.55;;;33.75;;
39156;SDS011;24889;42.424;25.604;2022-11-04T15:46:40;61.88;;;33.47;;
39156;SDS011;24889;42.424;25.604;2022-11-04T15:49:17;63.38;;;36.45;;
39156;SDS011;24889;42.424;25.604;2022-11-04T15:51:45;62.10;;;35.40;;
39156;SDS011;24889;42.424;25.604;2022-11-04T15:54:27;66.68;;;34.95;;
39156;SDS011;24889;42.424;25.604;2022-11-04T15:56:56;52.90;;;31.73;;
39156;SDS011;24889;42.424;25.604;2022-11-04T15:59:28;56.50;;;30.77;;
39156;SDS011;24889;42.424;25.604;2022-11-04T16:01:56;60.42;;;29.67;;
39156;SDS011;24889;42.424;25.604;2022-11-04T16:04:23;79.32;;;45.17;;
39156;SDS011;24889;42.424;25.604;2022-11-04T16:07:19;109.93;;;62.42;;
39156;SDS011;24889;42.424;25.604;2022-11-04T16:09:51;61.10;;;35.90;;
39156;SDS011;24889;42.424;25.604;2022-11-04T16:12:28;55.80;;;31.02;;
39156;SDS011;24889;42.424;25.604;2022-11-04T16:14:58;52.45;;;30.45;;
39156;SDS011;24889;42.424;25.604;2022-11-04T16:17:24;55.13;;;30.52;;
39156;SDS011;24889;42.424;25.604;2022-11-04T16:19:55;52.95;;;29.52;;
39156;SDS011;24889;42.424;25.604;2022-11-04T16:22:44;45.75;;;29.13;;
39156;SDS011;24889;42.424;25.604;2022-11-04T16:25:17;54.50;;;29.60;;
39156;SDS011;24889;42.424;25.604;2022-11-04T16:27:45;56.95;;;30.63;;
39156;SDS011;24889;42.424;25.604;2022-11-04T16:30:17;60.67;;;27.77;;
39156;SDS011;24889;42.424;25.604;2022-11-04T16:32:48;50.72;;;27.83;;
39156;SDS011;24889;42.424;25.604;2022-11-04T16:35:22;48.88;;;29.55;;
39156;SDS011;24889;42.424;25.604;2022-11-04T16:37:52;50.47;;;31.83;;
39156;SDS011;24889;42.424;25.604;2022-11-04T16:40:20;55.17;;;27.77;;
39156;SDS011;24889;42.424;25.604;2022-11-04T16:42:47;43.13;;;26.98;;
39156;SDS011;24889;42.424;25.604;2022-11-04T16:45:30;46.50;;;28.13;;
39156;SDS011;24889;42.424;25.604;2022-11-04T16:47:58;43.25;;;25.92;;
39156;SDS011;24889;42.424;25.604;2022-11-04T16:50:23;49.03;;;29.40;;
39156;SDS011;24889;42.424;25.604;2022-11-04T16:52:49;46.25;;;30.42;;
39156;SDS011;24889;42.424;25.604;2022-11-04T16:55:15;51.97;;;31.25;;
39156;SDS011;24889;42.424;25.604;2022-11-04T16:57:42;49.65;;;31.67;;
39156;SDS011;24889;42.424;25.604;2022-11-04T17:00:11;68.90;;;36.05;;
39156;SDS011;24889;42.424;25.604;2022-11-04T17:02:42;69.75;;;38.08;;
39156;SDS011;24889;42.424;25.604;2022-11-04T17:05:08;77.47;;;36.57;;
39156;SDS011;24889;42.424;25.604;2022-11-04T17:10:03;60.72;;;30.85;;
39156;SDS011;24889;42.424;25.604;2022-11-04T17:12:35;58.25;;;29.17;;